sensor_id;sensor_type;location;lat;lon;timestamp;pressure;altitude;pressure_sealevel;temperature;humidity
81997;BME280;71500;50.806;8.774;2023-09-19T00:02:10;98976.60;;;17.28;75.06
81997;BME280;71500;50.806;8.774;2023-09-19T00:04:41;98974.10;;;17.27;75.05
81997;BME280;71500;50.806;8.774;2023-09-19T00:07:13;98974.40;;;17.27;75.09
81997;BME280;71500;50.806;8.774;2023-09-19T00:09:46;98981.77;;;17.29;75.06
81997;BME280;71500;50.806;8.774;2023-09-19T00:12:18;98982.02;;;17.28;75.03
81997;BME280;71500;50.806;8.774;2023-09-19T00:14:50;98983.73;;;17.29;75.10
81997;BME280;71500;50.806;8.774;2023-09-19T00:17:23;98985.08;;;17.28;75.08
81997;BME280;71500;50.806;8.774;2023-09-19T00:19:54;98985.55;;;17.27;75.02
81997;BME280;71500;50.806;8.774;2023-09-19T00:22:26;98992.19;;;17.26;75.06
81997;BME280;71500;50.806;8.774;2023-09-19T00:24:57;98996.23;;;17.24;75.17
81997;BME280;71500;50.806;8.774;2023-09-19T00:27:29;98998.59;;;17.22;75.11
81997;BME280;71500;50.806;8.774;2023-09-19T00:30:00;98996.81;;;17.23;75.15
81997;BME280;71500;50.806;8.774;2023-09-19T00:32:34;98997.59;;;17.24;75.10
81997;BME280;71500;50.806;8.774;2023-09-19T00:35:08;99000.71;;;17.25;75.13
81997;BME280;71500;50.806;8.774;2023-09-19T00:37:41;99001.41;;;17.25;75.12
81997;BME280;71500;50.806;8.774;2023-09-19T00:40:13;99005.35;;;17.25;75.15
81997;BME280;71500;50.806;8.774;2023-09-19T00:42:46;99013.33;;;17.24;74.96
81997;BME280;71500;50.806;8.774;2023-09-19T00:45:18;99017.50;;;17.23;74.88
81997;BME280;71500;50.806;8.774;2023-09-19T00:47:51;99025.82;;;17.21;74.82
81997;BME280;71500;50.806;8.774;2023-09-19T00:50:25;99034.33;;;17.16;74.90
81997;BME280;71500;50.806;8.774;2023-09-19T00:52:59;99042.37;;;17.15;75.08
81997;BME280;71500;50.806;8.774;2023-09-19T00:55:31;99042.66;;;17.15;74.86
81997;BME280;71500;50.806;8.774;2023-09-19T00:58:03;99042.98;;;17.16;74.76
81997;BME280;71500;50.806;8.774;2023-09-19T01:00:36;99044.31;;;17.15;74.70
81997;BME280;71500;50.806;8.774;2023-09-19T01:03:08;99051.52;;;17.16;74.63
81997;BME280;71500;50.806;8.774;2023-09-19T01:05:41;99053.50;;;17.15;74.72
81997;BME280;71500;50.806;8.774;2023-09-19T01:08:13;99064.17;;;17.14;74.53
81997;BME280;71500;50.806;8.774;2023-09-19T01:10:49;99068.70;;;17.12;74.56
81997;BME280;71500;50.806;8.774;2023-09-19T01:13:30;99073.46;;;17.07;74.28
81997;BME280;71500;50.806;8.774;2023-09-19T01:16:17;99076.73;;;17.02;74.16
81997;BME280;71500;50.806;8.774;2023-09-19T01:18:55;99083.11;;;17.00;74.01
81997;BME280;71500;50.806;8.774;2023-09-19T01:21:34;99083.18;;;16.96;73.05
81997;BME280;71500;50.806;8.774;2023-09-19T01:24:30;99084.09;;;16.93;72.82
81997;BME280;71500;50.806;8.774;2023-09-19T01:27:11;99085.28;;;16.91;72.26
81997;BME280;71500;50.806;8.774;2023-09-19T01:29:49;99081.77;;;16.89;71.70
81997;BME280;71500;50.806;8.774;2023-09-19T01:32:23;99083.67;;;16.85;70.89
81997;BME280;71500;50.806;8.774;2023-09-19T01:34:56;99085.02;;;16.82;70.42
81997;BME280;71500;50.806;8.774;2023-09-19T01:37:34;99085.51;;;16.78;70.42
81997;BME280;71500;50.806;8.774;2023-09-19T01:40:09;99084.58;;;16.75;70.19
81997;BME280;71500;50.806;8.774;2023-09-19T01:42:53;99084.48;;;16.73;70.13
81997;BME280;71500;50.806;8.774;2023-09-19T01:45:37;99082.71;;;16.71;69.93
81997;BME280;71500;50.806;8.774;2023-09-19T01:48:22;99084.77;;;16.67;69.95
81997;BME280;71500;50.806;8.774;2023-09-19T01:51:02;99084.16;;;16.63;70.10
81997;BME280;71500;50.806;8.774;2023-09-19T01:53:40;99090.27;;;16.60;69.85
81997;BME280;71500;50.806;8.774;2023-09-19T01:56:20;99093.98;;;16.59;69.78
81997;BME280;71500;50.806;8.774;2023-09-19T01:58:58;99095.17;;;16.56;69.73
81997;BME280;71500;50.806;8.774;2023-09-19T02:01:31;99101.20;;;16.56;69.84
81997;BME280;71500;50.806;8.774;2023-09-19T02:04:03;99098.05;;;16.55;69.76
81997;BME280;71500;50.806;8.774;2023-09-19T02:06:35;99099.20;;;16.53;69.79
81997;BME280;71500;50.806;8.774;2023-09-19T02:09:07;99098.05;;;16.51;70.15
81997;BME280;71500;50.806;8.774;2023-09-19T02:11:39;99101.45;;;16.48;70.00
81997;BME280;71500;50.806;8.774;2023-09-19T02:14:11;99103.18;;;16.44;70.29
81997;BME280;71500;50.806;8.774;2023-09-19T02:16:42;99096.46;;;16.41;70.17
81997;BME280;71500;50.806;8.774;2023-09-19T02:19:13;99098.02;;;16.38;70.41
81997;BME280;71500;50.806;8.774;2023-09-19T02:21:45;99104.30;;;16.34;70.34
81997;BME280;71500;50.806;8.774;2023-09-19T02:24:16;99108.98;;;16.31;70.53
81997;BME280;71500;50.806;8.774;2023-09-19T02:26:49;99116.79;;;16.27;70.84
81997;BME280;71500;50.806;8.774;2023-09-19T02:29:20;99118.57;;;16.27;70.93
81997;BME280;71500;50.806;8.774;2023-09-19T02:31:52;99121.33;;;16.27;71.29
81997;BME280;71500;50.806;8.774;2023-09-19T02:34:26;99120.80;;;16.25;71.24
81997;BME280;71500;50.806;8.774;2023-09-19T02:36:58;99125.44;;;16.25;71.22
81997;BME280;71500;50.806;8.774;2023-09-19T02:39:30;99128.52;;;16.26;71.25
81997;BME280;71500;50.806;8.774;2023-09-19T02:42:02;99131.48;;;16.25;71.57
81997;BME280;71500;50.806;8.774;2023-09-19T02:44:35;99137.40;;;16.23;71.87
81997;BME280;71500;50.806;8.774;2023-09-19T02:47:08;99136.69;;;16.19;71.73
81997;BME280;71500;50.806;8.774;2023-09-19T02:49:40;99135.85;;;16.21;71.70
81997;BME280;71500;50.806;8.774;2023-09-19T02:52:12;99134.16;;;16.21;71.86
81997;BME280;71500;50.806;8.774;2023-09-19T02:54:45;99133.20;;;16.23;71.74
81997;BME280;71500;50.806;8.774;2023-09-19T02:57:16;99137.23;;;16.25;71.87
81997;BME280;71500;50.806;8.774;2023-09-19T02:59:49;99138.95;;;16.27;71.40
81997;BME280;71500;50.806;8.774;2023-09-19T03:02:21;99139.02;;;16.30;71.53
81997;BME280;71500;50.806;8.774;2023-09-19T03:04:54;99140.63;;;16.31;71.37
81997;BME280;71500;50.806;8.774;2023-09-19T03:07:26;99145.09;;;16.31;71.88
81997;BME280;71500;50.806;8.774;2023-09-19T03:09:58;99149.71;;;16.32;71.93
81997;BME280;71500;50.806;8.774;2023-09-19T03:12:30;99143.94;;;16.29;71.85
81997;BME280;71500;50.806;8.774;2023-09-19T03:15:02;99143.70;;;16.27;71.85
81997;BME280;71500;50.806;8.774;2023-09-19T03:17:33;99144.52;;;16.26;71.65
81997;BME280;71500;50.806;8.774;2023-09-19T03:20:06;99146.10;;;16.25;71.80
81997;BME280;71500;50.806;8.774;2023-09-19T03:22:39;99146.67;;;16.24;71.81
81997;BME280;71500;50.806;8.774;2023-09-19T03:25:11;99148.11;;;16.26;71.73
81997;BME280;71500;50.806;8.774;2023-09-19T03:27:43;99144.70;;;16.27;71.71
81997;BME280;71500;50.806;8.774;2023-09-19T03:30:14;99147.38;;;16.30;71.74
81997;BME280;71500;50.806;8.774;2023-09-19T03:32:47;99146.31;;;16.31;71.54
81997;BME280;71500;50.806;8.774;2023-09-19T03:35:20;99147.45;;;16.34;71.38
81997;BME280;71500;50.806;8.774;2023-09-19T03:37:52;99147.83;;;16.34;71.53
81997;BME280;71500;50.806;8.774;2023-09-19T03:40:23;99150.31;;;16.34;71.43
81997;BME280;71500;50.806;8.774;2023-09-19T03:42:56;99155.48;;;16.34;71.48
81997;BME280;71500;50.806;8.774;2023-09-19T03:45:27;99153.61;;;16.33;71.62
81997;BME280;71500;50.806;8.774;2023-09-19T03:47:58;99163.45;;;16.33;71.80
81997;BME280;71500;50.806;8.774;2023-09-19T03:50:30;99166.55;;;16.33;71.61
81997;BME280;71500;50.806;8.774;2023-09-19T03:53:03;99162.99;;;16.33;71.64
81997;BME280;71500;50.806;8.774;2023-09-19T03:55:35;99159.95;;;16.34;71.63
81997;BME280;71500;50.806;8.774;2023-09-19T03:58:06;99164.89;;;16.35;71.76
81997;BME280;71500;50.806;8.774;2023-09-19T04:00:37;99160.95;;;16.35;71.84
81997;BME280;71500;50.806;8.774;2023-09-19T04:03:09;99163.24;;;16.37;71.80
81997;BME280;71500;50.806;8.774;2023-09-19T04:05:49;99169.23;;;16.36;71.59
81997;BME280;71500;50.806;8.774;2023-09-19T04:08:21;99176.72;;;16.35;71.61
81997;BME280;71500;50.806;8.774;2023-09-19T04:10:52;99176.98;;;16.34;71.28
81997;BME280;71500;50.806;8.774;2023-09-19T04:13:23;99181.60;;;16.33;70.88
81997;BME280;71500;50.806;8.774;2023-09-19T04:15:55;99178.36;;;16.32;70.84
81997;BME280;71500;50.806;8.774;2023-09-19T04:18:26;99184.31;;;16.30;70.85
81997;BME280;71500;50.806;8.774;2023-09-19T04:20:58;99185.86;;;16.28;70.31
81997;BME280;71500;50.806;8.774;2023-09-19T04:23:29;99183.02;;;16.24;70.06
81997;BME280;71500;50.806;8.774;2023-09-19T04:26:01;99181.70;;;16.22;69.07
81997;BME280;71500;50.806;8.774;2023-09-19T04:28:34;99178.21;;;16.18;68.09
81997;BME280;71500;50.806;8.774;2023-09-19T04:31:08;99180.90;;;16.14;67.90
81997;BME280;71500;50.806;8.774;2023-09-19T04:33:41;99182.39;;;16.12;67.72
81997;BME280;71500;50.806;8.774;2023-09-19T04:36:13;99184.69;;;16.09;67.64
81997;BME280;71500;50.806;8.774;2023-09-19T04:39:05;99187.30;;;16.07;67.49
81997;BME280;71500;50.806;8.774;2023-09-19T04:41:37;99196.06;;;16.04;67.15
81997;BME280;71500;50.806;8.774;2023-09-19T04:44:11;99199.11;;;16.03;67.12
81997;BME280;71500;50.806;8.774;2023-09-19T04:46:43;99202.65;;;16.05;66.97
81997;BME280;71500;50.806;8.774;2023-09-19T04:49:16;99203.20;;;16.06;66.78
81997;BME280;71500;50.806;8.774;2023-09-19T04:51:48;99211.73;;;16.07;66.83
81997;BME280;71500;50.806;8.774;2023-09-19T04:54:20;99207.19;;;16.07;66.61
81997;BME280;71500;50.806;8.774;2023-09-19T04:56:52;99208.26;;;16.09;66.63
81997;BME280;71500;50.806;8.774;2023-09-19T04:59:23;99207.35;;;16.07;66.61
81997;BME280;71500;50.806;8.774;2023-09-19T05:01:55;99207.71;;;16.06;66.46
81997;BME280;71500;50.806;8.774;2023-09-19T05:04:28;99214.08;;;16.03;66.41
81997;BME280;71500;50.806;8.774;2023-09-19T05:06:59;99212.30;;;16.00;66.34
81997;BME280;71500;50.806;8.774;2023-09-19T05:09:32;99215.06;;;15.97;66.24
81997;BME280;71500;50.806;8.774;2023-09-19T05:12:06;99220.54;;;15.93;66.19
81997;BME280;71500;50.806;8.774;2023-09-19T05:14:37;99215.34;;;15.89;66.39
81997;BME280;71500;50.806;8.774;2023-09-19T05:17:10;99218.42;;;15.85;66.35
81997;BME280;71500;50.806;8.774;2023-09-19T05:19:42;99220.91;;;15.81;66.47
81997;BME280;71500;50.806;8.774;2023-09-19T05:22:13;99221.67;;;15.78;66.61
81997;BME280;71500;50.806;8.774;2023-09-19T05:24:45;99227.56;;;15.74;66.44
81997;BME280;71500;50.806;8.774;2023-09-19T05:27:18;99227.27;;;15.69;66.50
81997;BME280;71500;50.806;8.774;2023-09-19T05:29:51;99226.81;;;15.64;66.64
81997;BME280;71500;50.806;8.774;2023-09-19T05:32:23;99225.44;;;15.60;66.57
81997;BME280;71500;50.806;8.774;2023-09-19T05:34:54;99230.70;;;15.61;66.64
81997;BME280;71500;50.806;8.774;2023-09-19T05:37:26;99228.12;;;15.60;66.66
81997;BME280;71500;50.806;8.774;2023-09-19T05:39:58;99236.22;;;15.61;66.87
81997;BME280;71500;50.806;8.774;2023-09-19T05:42:29;99237.35;;;15.62;66.76
81997;BME280;71500;50.806;8.774;2023-09-19T05:45:01;99241.59;;;15.63;66.75
81997;BME280;71500;50.806;8.774;2023-09-19T05:47:32;99242.81;;;15.64;66.78
81997;BME280;71500;50.806;8.774;2023-09-19T05:50:06;99240.52;;;15.64;66.57
81997;BME280;71500;50.806;8.774;2023-09-19T05:52:39;99245.80;;;15.63;66.38
81997;BME280;71500;50.806;8.774;2023-09-19T05:55:11;99249.15;;;15.64;66.48
81997;BME280;71500;50.806;8.774;2023-09-19T05:57:42;99249.89;;;15.64;66.63
81997;BME280;71500;50.806;8.774;2023-09-19T06:00:15;99251.04;;;15.63;66.51
81997;BME280;71500;50.806;8.774;2023-09-19T06:02:51;99253.13;;;15.62;66.42
81997;BME280;71500;50.806;8.774;2023-09-19T06:05:24;99259.15;;;15.61;66.65
81997;BME280;71500;50.806;8.774;2023-09-19T06:07:57;99263.92;;;15.60;66.51
81997;BME280;71500;50.806;8.774;2023-09-19T06:10:31;99270.66;;;15.58;66.65
81997;BME280;71500;50.806;8.774;2023-09-19T06:13:03;99276.20;;;15.58;66.81
81997;BME280;71500;50.806;8.774;2023-09-19T06:15:36;99284.73;;;15.58;66.88
81997;BME280;71500;50.806;8.774;2023-09-19T06:18:11;99292.15;;;15.59;66.92
81997;BME280;71500;50.806;8.774;2023-09-19T06:20:45;99297.42;;;15.64;66.90
81997;BME280;71500;50.806;8.774;2023-09-19T06:23:17;99299.77;;;15.67;67.03
81997;BME280;71500;50.806;8.774;2023-09-19T06:25:50;99307.98;;;15.70;67.16
81997;BME280;71500;50.806;8.774;2023-09-19T06:28:21;99317.63;;;15.73;66.96
81997;BME280;71500;50.806;8.774;2023-09-19T06:30:54;99314.51;;;15.74;67.34
81997;BME280;71500;50.806;8.774;2023-09-19T06:33:27;99320.21;;;15.77;67.21
81997;BME280;71500;50.806;8.774;2023-09-19T06:36:04;99317.69;;;15.79;67.50
81997;BME280;71500;50.806;8.774;2023-09-19T06:38:35;99322.50;;;15.80;67.70
81997;BME280;71500;50.806;8.774;2023-09-19T06:41:10;99329.26;;;15.81;68.03
81997;BME280;71500;50.806;8.774;2023-09-19T06:43:41;99333.30;;;15.83;68.20
81997;BME280;71500;50.806;8.774;2023-09-19T06:46:13;99337.77;;;15.83;68.58
81997;BME280;71500;50.806;8.774;2023-09-19T06:48:45;99346.09;;;15.84;68.59
81997;BME280;71500;50.806;8.774;2023-09-19T06:51:17;99346.25;;;15.84;68.74
81997;BME280;71500;50.806;8.774;2023-09-19T06:53:49;99350.48;;;15.87;68.77
81997;BME280;71500;50.806;8.774;2023-09-19T06:56:21;99350.17;;;15.93;68.78
81997;BME280;71500;50.806;8.774;2023-09-19T06:58:54;99350.86;;;15.98;68.87
81997;BME280;71500;50.806;8.774;2023-09-19T07:01:26;99350.77;;;16.01;69.04
81997;BME280;71500;50.806;8.774;2023-09-19T07:03:57;99348.08;;;16.01;68.98
81997;BME280;71500;50.806;8.774;2023-09-19T07:06:29;99355.58;;;16.02;69.30
81997;BME280;71500;50.806;8.774;2023-09-19T07:09:00;99360.66;;;16.02;69.44
81997;BME280;71500;50.806;8.774;2023-09-19T07:11:31;99365.98;;;16.05;69.47
81997;BME280;71500;50.806;8.774;2023-09-19T07:14:04;99374.70;;;16.06;69.50
81997;BME280;71500;50.806;8.774;2023-09-19T07:16:36;99374.03;;;16.06;69.53
81997;BME280;71500;50.806;8.774;2023-09-19T07:19:07;99378.04;;;16.06;69.76
81997;BME280;71500;50.806;8.774;2023-09-19T07:21:38;99383.48;;;16.05;69.80
81997;BME280;71500;50.806;8.774;2023-09-19T07:24:10;99384.44;;;16.06;69.88
81997;BME280;71500;50.806;8.774;2023-09-19T07:26:42;99381.83;;;16.10;69.78
81997;BME280;71500;50.806;8.774;2023-09-19T07:29:13;99387.15;;;16.13;69.83
81997;BME280;71500;50.806;8.774;2023-09-19T07:31:45;99389.23;;;16.15;69.88
81997;BME280;71500;50.806;8.774;2023-09-19T07:34:17;99390.85;;;16.20;70.20
81997;BME280;71500;50.806;8.774;2023-09-19T07:36:51;99394.20;;;16.25;70.12
81997;BME280;71500;50.806;8.774;2023-09-19T07:39:22;99392.74;;;16.29;70.16
81997;BME280;71500;50.806;8.774;2023-09-19T07:41:54;99389.36;;;16.32;70.17
81997;BME280;71500;50.806;8.774;2023-09-19T07:44:25;99387.05;;;16.35;70.11
81997;BME280;71500;50.806;8.774;2023-09-19T07:46:56;99382.62;;;16.37;70.16
81997;BME280;71500;50.806;8.774;2023-09-19T07:49:28;99387.80;;;16.40;69.89
81997;BME280;71500;50.806;8.774;2023-09-19T07:51:59;99385.72;;;16.46;70.01
81997;BME280;71500;50.806;8.774;2023-09-19T07:54:31;99392.05;;;16.50;69.69
81997;BME280;71500;50.806;8.774;2023-09-19T07:57:06;99386.41;;;16.52;69.79
81997;BME280;71500;50.806;8.774;2023-09-19T07:59:37;99384.68;;;16.54;69.81
81997;BME280;71500;50.806;8.774;2023-09-19T08:02:09;99383.84;;;16.57;69.37
81997;BME280;71500;50.806;8.774;2023-09-19T08:04:46;99384.60;;;16.58;68.92
81997;BME280;71500;50.806;8.774;2023-09-19T08:07:19;99377.98;;;16.58;68.67
81997;BME280;71500;50.806;8.774;2023-09-19T08:09:50;99387.58;;;16.63;68.41
81997;BME280;71500;50.806;8.774;2023-09-19T08:12:22;99384.42;;;16.67;68.55
81997;BME280;71500;50.806;8.774;2023-09-19T08:14:53;99378.76;;;16.70;68.43
81997;BME280;71500;50.806;8.774;2023-09-19T08:17:25;99378.91;;;16.73;67.36
81997;BME280;71500;50.806;8.774;2023-09-19T08:19:57;99385.32;;;16.74;66.71
81997;BME280;71500;50.806;8.774;2023-09-19T08:22:28;99383.80;;;16.77;66.36
81997;BME280;71500;50.806;8.774;2023-09-19T08:25:02;99386.52;;;16.80;66.02
81997;BME280;71500;50.806;8.774;2023-09-19T08:27:36;99387.04;;;16.85;66.10
81997;BME280;71500;50.806;8.774;2023-09-19T08:30:09;99388.87;;;16.91;65.78
81997;BME280;71500;50.806;8.774;2023-09-19T08:32:40;99381.53;;;16.96;65.04
81997;BME280;71500;50.806;8.774;2023-09-19T08:35:13;99380.80;;;17.02;64.67
81997;BME280;71500;50.806;8.774;2023-09-19T08:37:44;99381.96;;;17.09;64.32
81997;BME280;71500;50.806;8.774;2023-09-19T08:40:16;99388.86;;;17.15;64.09
81997;BME280;71500;50.806;8.774;2023-09-19T08:42:53;99385.61;;;17.19;63.61
81997;BME280;71500;50.806;8.774;2023-09-19T08:45:25;99390.02;;;17.23;63.03
81997;BME280;71500;50.806;8.774;2023-09-19T08:48:10;99395.61;;;17.30;62.74
81997;BME280;71500;50.806;8.774;2023-09-19T08:50:51;99396.27;;;17.35;62.66
81997;BME280;71500;50.806;8.774;2023-09-19T08:53:26;99398.83;;;17.39;62.32
81997;BME280;71500;50.806;8.774;2023-09-19T08:56:03;99396.06;;;17.43;61.39
81997;BME280;71500;50.806;8.774;2023-09-19T08:58:42;99399.38;;;17.45;61.70
81997;BME280;71500;50.806;8.774;2023-09-19T09:01:18;99401.72;;;17.49;61.39
81997;BME280;71500;50.806;8.774;2023-09-19T09:03:56;99406.73;;;17.55;61.74
81997;BME280;71500;50.806;8.774;2023-09-19T09:06:27;99407.38;;;17.62;61.60
81997;BME280;71500;50.806;8.774;2023-09-19T09:08:58;99410.20;;;17.66;61.03
81997;BME280;71500;50.806;8.774;2023-09-19T09:11:34;99409.23;;;17.72;61.09
81997;BME280;71500;50.806;8.774;2023-09-19T09:14:07;99414.79;;;17.76;60.98
81997;BME280;71500;50.806;8.774;2023-09-19T09:16:38;99415.80;;;17.79;60.72
81997;BME280;71500;50.806;8.774;2023-09-19T09:19:10;99418.55;;;17.82;59.72
81997;BME280;71500;50.806;8.774;2023-09-19T09:21:42;99417.79;;;17.85;60.01
81997;BME280;71500;50.806;8.774;2023-09-19T09:24:29;99411.48;;;17.88;60.02
81997;BME280;71500;50.806;8.774;2023-09-19T09:27:04;99410.27;;;17.93;59.96
81997;BME280;71500;50.806;8.774;2023-09-19T09:29:47;99414.50;;;17.98;59.69
81997;BME280;71500;50.806;8.774;2023-09-19T09:32:21;99414.49;;;18.02;59.31
81997;BME280;71500;50.806;8.774;2023-09-19T09:34:54;99419.05;;;18.09;59.15
81997;BME280;71500;50.806;8.774;2023-09-19T09:37:30;99419.76;;;18.14;58.88
81997;BME280;71500;50.806;8.774;2023-09-19T09:40:03;99421.33;;;18.22;58.54
81997;BME280;71500;50.806;8.774;2023-09-19T09:42:49;99416.88;;;18.28;58.35
81997;BME280;71500;50.806;8.774;2023-09-19T09:45:23;99414.98;;;18.35;57.48
81997;BME280;71500;50.806;8.774;2023-09-19T09:48:08;99416.52;;;18.38;57.10
81997;BME280;71500;50.806;8.774;2023-09-19T09:50:49;99423.93;;;18.44;56.94
81997;BME280;71500;50.806;8.774;2023-09-19T09:53:27;99422.75;;;18.46;56.49
81997;BME280;71500;50.806;8.774;2023-09-19T09:56:04;99425.41;;;18.47;56.37
81997;BME280;71500;50.806;8.774;2023-09-19T09:58:38;99425.34;;;18.49;55.96
81997;BME280;71500;50.806;8.774;2023-09-19T10:01:21;99421.24;;;18.50;55.90
81997;BME280;71500;50.806;8.774;2023-09-19T10:03:59;99427.82;;;18.52;55.84
81997;BME280;71500;50.806;8.774;2023-09-19T10:06:41;99419.61;;;18.53;55.47
81997;BME280;71500;50.806;8.774;2023-09-19T10:09:18;99422.39;;;18.57;55.88
81997;BME280;71500;50.806;8.774;2023-09-19T10:12:07;99421.92;;;18.62;55.08
81997;BME280;71500;50.806;8.774;2023-09-19T10:14:42;99423.02;;;18.66;54.71
81997;BME280;71500;50.806;8.774;2023-09-19T10:17:19;99423.23;;;18.70;55.24
81997;BME280;71500;50.806;8.774;2023-09-19T10:19:55;99424.86;;;18.76;55.01
81997;BME280;71500;50.806;8.774;2023-09-19T10:22:29;99419.50;;;18.76;54.77
81997;BME280;71500;50.806;8.774;2023-09-19T10:25:04;99420.25;;;18.82;54.19
81997;BME280;71500;50.806;8.774;2023-09-19T10:27:38;99421.09;;;18.82;54.45
81997;BME280;71500;50.806;8.774;2023-09-19T10:30:12;99421.86;;;18.85;54.04
81997;BME280;71500;50.806;8.774;2023-09-19T10:32:43;99424.95;;;18.90;54.59
81997;BME280;71500;50.806;8.774;2023-09-19T10:35:18;99426.08;;;18.96;54.22
81997;BME280;71500;50.806;8.774;2023-09-19T10:37:51;99424.68;;;18.99;53.92
81997;BME280;71500;50.806;8.774;2023-09-19T10:40:24;99420.02;;;19.03;53.76
81997;BME280;71500;50.806;8.774;2023-09-19T10:43:03;99419.55;;;19.01;53.76
81997;BME280;71500;50.806;8.774;2023-09-19T10:45:36;99418.38;;;19.00;53.91
81997;BME280;71500;50.806;8.774;2023-09-19T10:48:09;99417.13;;;18.97;53.95
81997;BME280;71500;50.806;8.774;2023-09-19T10:50:44;99416.44;;;18.96;54.19
81997;BME280;71500;50.806;8.774;2023-09-19T10:53:18;99420.67;;;18.95;54.19
81997;BME280;71500;50.806;8.774;2023-09-19T10:55:55;99413.91;;;18.96;54.06
81997;BME280;71500;50.806;8.774;2023-09-19T10:58:31;99409.95;;;19.00;54.23
81997;BME280;71500;50.806;8.774;2023-09-19T11:01:08;99412.60;;;19.04;54.38
81997;BME280;71500;50.806;8.774;2023-09-19T11:03:43;99407.59;;;19.06;54.17
81997;BME280;71500;50.806;8.774;2023-09-19T11:06:17;99410.48;;;19.08;54.12
81997;BME280;71500;50.806;8.774;2023-09-19T11:09:00;99412.09;;;19.11;53.69
81997;BME280;71500;50.806;8.774;2023-09-19T11:11:48;99408.95;;;19.14;53.31
81997;BME280;71500;50.806;8.774;2023-09-19T11:14:40;99409.64;;;19.12;52.80
81997;BME280;71500;50.806;8.774;2023-09-19T11:17:34;99407.23;;;19.10;53.16
81997;BME280;71500;50.806;8.774;2023-09-19T11:20:24;99400.95;;;19.13;53.44
81997;BME280;71500;50.806;8.774;2023-09-19T11:23:22;99398.68;;;19.20;52.89
81997;BME280;71500;50.806;8.774;2023-09-19T11:25:55;99395.56;;;19.26;52.29
81997;BME280;71500;50.806;8.774;2023-09-19T11:28:36;99397.55;;;19.35;51.74
81997;BME280;71500;50.806;8.774;2023-09-19T11:40:10;99400.13;;;19.54;51.42
81997;BME280;71500;50.806;8.774;2023-09-19T11:42:47;99399.02;;;19.58;51.52
81997;BME280;71500;50.806;8.774;2023-09-19T11:48:28;99393.27;;;19.76;50.86
81997;BME280;71500;50.806;8.774;2023-09-19T11:51:01;99399.78;;;19.86;50.36
81997;BME280;71500;50.806;8.774;2023-09-19T11:53:38;99400.88;;;19.95;50.14
81997;BME280;71500;50.806;8.774;2023-09-19T11:56:12;99388.95;;;19.98;50.08
81997;BME280;71500;50.806;8.774;2023-09-19T11:58:46;99393.91;;;20.07;50.17
81997;BME280;71500;50.806;8.774;2023-09-19T12:01:23;99384.48;;;20.15;49.45
81997;BME280;71500;50.806;8.774;2023-09-19T12:03:57;99388.95;;;20.16;48.92
81997;BME280;71500;50.806;8.774;2023-09-19T12:06:30;99395.54;;;20.22;48.72
81997;BME280;71500;50.806;8.774;2023-09-19T12:09:04;99390.31;;;20.27;49.14
81997;BME280;71500;50.806;8.774;2023-09-19T12:11:44;99393.77;;;20.26;49.02
81997;BME280;71500;50.806;8.774;2023-09-19T12:14:24;99389.77;;;20.26;48.70
81997;BME280;71500;50.806;8.774;2023-09-19T12:16:56;99381.32;;;20.22;49.10
81997;BME280;71500;50.806;8.774;2023-09-19T12:19:31;99388.06;;;20.22;48.70
81997;BME280;71500;50.806;8.774;2023-09-19T12:22:03;99381.23;;;20.19;48.41
81997;BME280;71500;50.806;8.774;2023-09-19T12:24:35;99386.44;;;20.13;48.08
81997;BME280;71500;50.806;8.774;2023-09-19T12:27:08;99384.05;;;20.05;47.86
81997;BME280;71500;50.806;8.774;2023-09-19T12:29:46;99385.16;;;20.00;48.55
81997;BME280;71500;50.806;8.774;2023-09-19T12:32:19;99382.17;;;19.98;48.89
81997;BME280;71500;50.806;8.774;2023-09-19T12:35:06;99374.66;;;19.97;48.69
81997;BME280;71500;50.806;8.774;2023-09-19T12:37:45;99374.68;;;19.94;48.16
81997;BME280;71500;50.806;8.774;2023-09-19T12:40:19;99372.55;;;19.93;48.35
81997;BME280;71500;50.806;8.774;2023-09-19T12:42:53;99377.13;;;19.90;48.47
81997;BME280;71500;50.806;8.774;2023-09-19T12:45:24;99378.45;;;19.89;48.59
81997;BME280;71500;50.806;8.774;2023-09-19T12:48:22;99376.59;;;19.90;48.51
81997;BME280;71500;50.806;8.774;2023-09-19T12:51:07;99372.63;;;19.87;47.82
81997;BME280;71500;50.806;8.774;2023-09-19T12:53:41;99372.38;;;19.86;47.96
81997;BME280;71500;50.806;8.774;2023-09-19T12:56:16;99372.96;;;19.87;48.10
81997;BME280;71500;50.806;8.774;2023-09-19T12:58:53;99373.96;;;19.90;48.31
81997;BME280;71500;50.806;8.774;2023-09-19T13:01:26;99376.85;;;20.00;48.00
81997;BME280;71500;50.806;8.774;2023-09-19T13:04:16;99373.30;;;20.08;47.57
81997;BME280;71500;50.806;8.774;2023-09-19T13:06:56;99373.31;;;20.16;47.09
81997;BME280;71500;50.806;8.774;2023-09-19T13:09:31;99372.25;;;20.20;46.45
81997;BME280;71500;50.806;8.774;2023-09-19T13:12:16;99376.73;;;20.26;46.42
81997;BME280;71500;50.806;8.774;2023-09-19T13:15:09;99374.55;;;20.30;46.72
81997;BME280;71500;50.806;8.774;2023-09-19T13:17:47;99377.13;;;20.37;46.37
81997;BME280;71500;50.806;8.774;2023-09-19T13:20:26;99364.27;;;20.45;46.38
81997;BME280;71500;50.806;8.774;2023-09-19T13:23:03;99363.93;;;20.53;46.34
81997;BME280;71500;50.806;8.774;2023-09-19T13:25:40;99367.22;;;20.60;46.31
81997;BME280;71500;50.806;8.774;2023-09-19T13:28:12;99364.24;;;20.68;45.77
81997;BME280;71500;50.806;8.774;2023-09-19T13:30:43;99364.36;;;20.72;45.37
81997;BME280;71500;50.806;8.774;2023-09-19T13:33:15;99364.34;;;20.70;45.55
81997;BME280;71500;50.806;8.774;2023-09-19T13:35:51;99361.79;;;20.70;45.55
81997;BME280;71500;50.806;8.774;2023-09-19T13:38:23;99355.84;;;20.74;45.27
81997;BME280;71500;50.806;8.774;2023-09-19T13:40:54;99355.34;;;20.75;45.24
81997;BME280;71500;50.806;8.774;2023-09-19T13:43:26;99363.81;;;20.77;45.25
81997;BME280;71500;50.806;8.774;2023-09-19T13:45:59;99355.17;;;20.77;44.93
81997;BME280;71500;50.806;8.774;2023-09-19T13:48:31;99357.27;;;20.76;44.20
81997;BME280;71500;50.806;8.774;2023-09-19T13:51:05;99346.11;;;20.76;44.47